createdAt,value
2023-03-21T00:01:09.702Z,13.60
2023-03-21T00:01:43.870Z,13.65
2023-03-21T00:02:31.758Z,13.68
2023-03-21T00:03:06.314Z,13.70
2023-03-21T00:03:55.774Z,13.69
2023-03-21T00:04:50.813Z,13.68
2023-03-21T00:05:45.825Z,13.71
2023-03-21T00:06:39.700Z,13.83
2023-03-21T00:07:33.721Z,13.81
2023-03-21T00:08:27.780Z,13.72
2023-03-21T00:09:21.743Z,13.58
2023-03-21T00:10:05.147Z,13.72
2023-03-21T00:11:00.927Z,13.68
2023-03-21T00:11:42.724Z,13.62
2023-03-21T00:12:22.812Z,13.48
2023-03-21T00:13:04.707Z,13.49
2023-03-21T00:13:45.858Z,13.62
2023-03-21T00:14:26.725Z,13.54
2023-03-21T00:15:13.766Z,13.60
2023-03-21T00:16:16.085Z,13.63
2023-03-21T00:17:19.708Z,13.77
2023-03-21T00:18:17.732Z,13.69
2023-03-21T00:19:12.703Z,13.73
2023-03-21T00:20:07.710Z,13.64
2023-03-21T00:20:48.735Z,13.70
2023-03-21T00:22:03.571Z,13.76
2023-03-21T00:22:33.722Z,13.72
2023-03-21T00:23:13.847Z,13.59
2023-03-21T00:23:54.707Z,13.68
2023-03-21T00:24:35.239Z,13.71
2023-03-21T00:25:17.721Z,13.64
2023-03-21T00:26:04.724Z,13.46
2023-03-21T00:27:12.516Z,13.54
2023-03-21T00:28:13.718Z,13.50
2023-03-21T00:29:07.719Z,13.65
2023-03-21T00:30:02.720Z,13.61
2023-03-21T00:30:56.703Z,13.55
2023-03-21T00:31:37.731Z,13.41
2023-03-21T00:32:17.786Z,13.58
2023-03-21T00:33:03.574Z,13.43
2023-03-21T00:33:46.809Z,13.40
2023-03-21T00:34:36.879Z,13.45
2023-03-21T00:35:57.425Z,13.46
2023-03-21T00:36:24.708Z,13.48
2023-03-21T00:37:04.707Z,13.66
2023-03-21T00:37:38.822Z,13.64
2023-03-21T00:38:27.709Z,13.66
2023-03-21T00:39:01.922Z,13.50
2023-03-21T00:39:50.685Z,13.22
2023-03-21T00:40:29.449Z,13.12
2023-03-21T00:41:39.036Z,13.39
2023-03-21T00:42:22.750Z,13.21
2023-03-21T00:43:16.692Z,13.34
2023-03-21T00:44:10.713Z,13.31
2023-03-21T00:45:04.699Z,13.12
2023-03-21T00:45:59.688Z,13.16
2023-03-21T00:47:06.283Z,12.99
2023-03-21T00:47:46.866Z,13.08
2023-03-21T00:48:26.877Z,12.98
2023-03-21T00:49:06.688Z,13.09
2023-03-21T00:49:47.795Z,13.18
2023-03-21T00:50:28.728Z,13.16
2023-03-21T00:51:08.777Z,13.05
2023-03-21T00:51:50.320Z,13.20
2023-03-21T00:52:40.615Z,13.07
2023-03-21T00:53:22.761Z,13.08
2023-03-21T00:54:05.693Z,12.92
2023-03-21T00:54:46.698Z,13.06
2023-03-21T00:55:26.835Z,12.95
2023-03-21T00:56:07.685Z,12.99
2023-03-21T00:56:47.865Z,12.86
2023-03-21T00:57:38.695Z,12.98
2023-03-21T00:58:19.790Z,13.08
2023-03-21T00:58:59.696Z,12.97
2023-03-21T00:59:39.771Z,12.92
2023-03-21T01:00:22.692Z,13.00
2023-03-21T01:01:04.427Z,13.12
2023-03-21T01:01:45.707Z,12.99
2023-03-21T01:02:26.929Z,12.96
2023-03-21T01:03:23.744Z,13.03
2023-03-21T01:04:17.689Z,12.99
2023-03-21T01:05:11.700Z,12.98
2023-03-21T01:06:13.661Z,13.18
2023-03-21T01:07:08.723Z,13.01
2023-03-21T01:08:06.017Z,12.87
2023-03-21T01:09:04.687Z,13.00
2023-03-21T01:09:45.690Z,12.89
2023-03-21T01:10:26.436Z,12.94
2023-03-21T01:11:14.671Z,12.97
2023-03-21T01:11:56.790Z,13.05
2023-03-21T01:12:36.669Z,13.02
2023-03-21T01:13:18.774Z,12.94
2023-03-21T01:14:14.595Z,13.12
2023-03-21T01:15:00.697Z,13.08
2023-03-21T01:15:34.969Z,13.19
2023-03-21T01:16:21.661Z,13.30
2023-03-21T01:16:57.777Z,13.29
2023-03-21T01:17:44.655Z,13.34
2023-03-21T01:18:20.055Z,13.28
2023-03-21T01:19:15.010Z,13.28
2023-03-21T01:19:55.744Z,13.10
2023-03-21T01:20:36.671Z,12.98
2023-03-21T01:21:20.851Z,12.95
2023-03-21T01:22:02.676Z,13.04
2023-03-21T01:22:42.753Z,13.05
2023-03-21T01:23:23.640Z,12.96
2023-03-21T01:24:03.736Z,13.11
2023-03-21T01:24:53.158Z,12.99
2023-03-21T01:25:43.668Z,13.00
2023-03-21T01:26:37.652Z,12.97
2023-03-21T01:27:31.682Z,13.12
2023-03-21T01:28:25.690Z,13.13
2023-03-21T01:29:19.676Z,13.11
2023-03-21T01:30:20.292Z,12.98
2023-03-21T01:31:09.718Z,12.99
2023-03-21T01:31:43.795Z,13.01
2023-03-21T01:32:30.697Z,12.82
2023-03-21T01:33:04.768Z,12.81
2023-03-21T01:33:52.653Z,12.84
2023-03-21T01:34:27.577Z,12.85
2023-03-21T01:35:15.674Z,12.86
2023-03-21T01:35:55.341Z,12.87
2023-03-21T01:36:40.755Z,12.77
2023-03-21T01:37:20.748Z,12.91
2023-03-21T01:38:00.644Z,12.75
2023-03-21T01:38:40.855Z,12.70
2023-03-21T01:39:21.669Z,12.88
2023-03-21T01:40:01.746Z,12.90
2023-03-21T01:40:42.660Z,12.94
2023-03-21T01:41:47.659Z,12.96
2023-03-21T01:42:41.644Z,12.75
2023-03-21T01:43:46.635Z,12.81
2023-03-21T01:44:41.636Z,12.88
2023-03-21T01:46:34.803Z,12.98
2023-03-21T01:47:24.693Z,12.91
2023-03-21T01:48:04.744Z,12.99
2023-03-21T01:48:48.628Z,12.85
2023-03-21T01:49:35.032Z,13.03
2023-03-21T01:50:15.616Z,12.72
2023-03-21T01:50:56.776Z,12.98
2023-03-21T01:51:41.675Z,13.11
2023-03-21T01:52:37.549Z,13.01
2023-03-21T01:53:36.657Z,13.07
2023-03-21T01:54:39.650Z,12.94
2023-03-21T01:55:33.637Z,12.81
2023-03-21T01:56:51.643Z,13.08
2023-03-21T01:58:04.441Z,12.94
2023-03-21T01:59:01.664Z,12.89
2023-03-21T02:00:08.658Z,12.99
2023-03-21T02:01:03.630Z,12.72
2023-03-21T02:01:58.630Z,12.81
2023-03-21T02:03:11.323Z,12.85
2023-03-21T02:04:09.868Z,13.11
2023-03-21T02:05:04.640Z,13.03
2023-03-21T02:06:10.637Z,13.05
2023-03-21T02:07:25.628Z,13.17
2023-03-21T02:08:12.663Z,13.08
2023-03-21T02:08:46.766Z,13.07
2023-03-21T02:09:39.606Z,13.14
2023-03-21T02:10:17.765Z,13.12
2023-03-21T02:11:05.584Z,13.10
2023-03-21T02:11:39.738Z,12.94
2023-03-21T02:12:27.632Z,13.16
2023-03-21T02:13:09.312Z,13.07
2023-03-21T02:13:55.838Z,12.92
2023-03-21T02:14:43.726Z,12.97
2023-03-21T02:15:24.612Z,12.93
2023-03-21T02:16:41.748Z,13.21
2023-03-21T02:17:47.603Z,13.25
2023-03-21T02:19:17.632Z,13.37
2023-03-21T02:20:19.594Z,13.42
2023-03-21T02:21:56.596Z,13.30
2023-03-21T02:23:45.609Z,13.11
2023-03-21T02:25:29.637Z,13.23
2023-03-21T02:26:50.163Z,13.21
2023-03-21T02:27:47.602Z,13.16
2023-03-21T02:28:21.713Z,13.19
2023-03-21T02:29:43.601Z,13.38
2023-03-21T02:30:51.364Z,13.45
2023-03-21T02:31:38.390Z,13.41
2023-03-21T02:32:43.618Z,13.27
2023-03-21T02:33:59.338Z,13.33
2023-03-21T02:35:29.582Z,13.43
2023-03-21T02:36:51.677Z,13.29
2023-03-21T02:38:24.595Z,13.38
2023-03-21T02:39:44.602Z,13.21
2023-03-21T02:41:01.770Z,13.35
2023-03-21T02:42:11.679Z,13.16
2023-03-21T02:43:45.575Z,13.38
2023-03-21T02:45:02.602Z,13.19
2023-03-21T02:46:07.631Z,13.07
2023-03-21T02:47:13.649Z,13.23
2023-03-21T02:48:26.863Z,13.00
2023-03-21T02:50:09.551Z,13.20
2023-03-21T02:51:11.586Z,13.06
2023-03-21T02:52:15.690Z,13.00
2023-03-21T02:53:01.590Z,13.12
2023-03-21T02:53:49.625Z,13.20
2023-03-21T02:54:47.030Z,13.23
2023-03-21T02:55:34.751Z,13.12
2023-03-21T02:56:17.617Z,13.05
2023-03-21T02:56:59.669Z,13.05
2023-03-21T02:57:43.395Z,13.01
2023-03-21T02:58:27.729Z,13.08
2023-03-21T02:59:01.691Z,13.23
2023-03-21T02:59:54.590Z,13.10
2023-03-21T03:00:39.760Z,13.11
2023-03-21T03:01:27.617Z,13.14
2023-03-21T03:02:02.648Z,13.24
2023-03-21T03:02:54.622Z,13.05
2023-03-21T03:03:43.604Z,12.95
2023-03-21T03:04:40.692Z,12.81
2023-03-21T03:05:40.583Z,12.84
2023-03-21T03:06:40.592Z,12.89
2023-03-21T03:07:57.567Z,12.85
2023-03-21T03:09:03.584Z,12.92
2023-03-21T03:11:05.565Z,12.84
2023-03-21T03:12:01.561Z,12.79
2023-03-21T03:13:27.560Z,12.79
2023-03-21T03:15:00.163Z,12.55
2023-03-21T03:16:23.571Z,12.19
2023-03-21T03:17:35.586Z,12.45
2023-03-21T03:19:10.546Z,12.56
2023-03-21T03:20:25.584Z,12.66
2023-03-21T03:22:00.545Z,12.58
2023-03-21T03:23:25.568Z,12.49
2023-03-21T03:24:19.552Z,12.65
2023-03-21T03:25:36.061Z,12.51
2023-03-21T03:26:33.552Z,12.58
2023-03-21T03:27:17.673Z,12.54
2023-03-21T03:28:01.541Z,12.56
2023-03-21T03:28:47.666Z,12.52
2023-03-21T03:29:29.530Z,12.65
2023-03-21T03:30:12.791Z,12.57
2023-03-21T03:31:08.207Z,12.62
2023-03-21T03:32:17.653Z,12.65
2023-03-21T03:33:06.555Z,12.57
2023-03-21T03:33:52.661Z,12.72
2023-03-21T03:34:40.544Z,12.63
2023-03-21T03:35:24.721Z,12.75
2023-03-21T03:36:07.111Z,12.80
2023-03-21T03:36:56.069Z,12.79
2023-03-21T03:37:41.523Z,12.73
2023-03-21T03:38:21.985Z,12.80
2023-03-21T03:39:02.561Z,12.78
2023-03-21T03:40:00.700Z,12.77
2023-03-21T03:40:52.530Z,12.81
2023-03-21T03:42:00.830Z,12.80
2023-03-21T03:42:42.627Z,12.62
2023-03-21T03:43:36.586Z,12.64
2023-03-21T03:44:10.791Z,12.45
2023-03-21T03:44:57.539Z,12.51
2023-03-21T03:45:39.624Z,12.48
2023-03-21T03:46:42.571Z,12.52
2023-03-21T03:47:31.691Z,12.53
2023-03-21T03:48:31.547Z,12.54
2023-03-21T03:49:11.644Z,12.48
2023-03-21T03:50:19.528Z,12.47
2023-03-21T03:51:13.639Z,12.65
2023-03-21T03:52:27.555Z,12.41
2023-03-21T03:53:18.408Z,12.41
2023-03-21T03:54:29.529Z,12.45
2023-03-21T03:55:03.618Z,12.54
2023-03-21T03:55:51.524Z,12.56
2023-03-21T03:56:25.807Z,12.46
2023-03-21T03:57:13.545Z,12.33
2023-03-21T03:57:54.557Z,12.22
2023-03-21T03:58:49.513Z,12.42
2023-03-21T03:59:43.513Z,12.38
2023-03-21T04:00:37.654Z,12.15
2023-03-21T04:01:31.528Z,12.37
2023-03-21T04:02:26.616Z,12.41
2023-03-21T04:03:16.593Z,12.17
2023-03-21T04:04:03.742Z,12.30
2023-03-21T04:04:59.510Z,12.36
2023-03-21T04:05:33.600Z,12.39
2023-03-21T04:06:20.506Z,12.12
2023-03-21T04:06:54.602Z,12.16
2023-03-21T04:07:41.486Z,12.21
2023-03-21T04:08:15.593Z,12.14
2023-03-21T04:08:58.099Z,12.17
2023-03-21T04:09:44.540Z,12.34
2023-03-21T04:10:26.515Z,12.32
2023-03-21T04:11:08.595Z,12.11
2023-03-21T04:11:49.514Z,12.17
2023-03-21T04:12:30.942Z,12.18
2023-03-21T04:13:10.508Z,12.14
2023-03-21T04:13:50.652Z,12.20
2023-03-21T04:14:43.978Z,12.16
2023-03-21T04:15:25.621Z,12.11
2023-03-21T04:16:06.559Z,12.30
2023-03-21T04:16:46.605Z,12.30
2023-03-21T04:17:27.527Z,12.30
2023-03-21T04:18:07.599Z,12.13
2023-03-21T04:18:48.476Z,12.23
2023-03-21T04:19:28.585Z,12.16
2023-03-21T04:20:20.732Z,12.25
2023-03-21T04:21:03.618Z,12.10
2023-03-21T04:21:44.512Z,12.17
2023-03-21T04:22:24.613Z,11.97
2023-03-21T04:23:05.560Z,12.05
2023-03-21T04:23:46.953Z,12.07
2023-03-21T04:24:27.521Z,12.05
2023-03-21T04:25:07.750Z,12.08
2023-03-21T04:25:56.235Z,12.07
2023-03-21T04:26:38.138Z,11.83
2023-03-21T04:27:20.551Z,11.91
2023-03-21T04:28:01.616Z,12.07
2023-03-21T04:28:43.566Z,12.15
2023-03-21T04:29:24.080Z,12.08
2023-03-21T04:30:05.485Z,12.09
2023-03-21T04:31:00.311Z,12.13
2023-03-21T04:31:42.515Z,12.10
2023-03-21T04:32:24.669Z,12.19
2023-03-21T04:33:07.483Z,12.07
2023-03-21T04:33:47.959Z,12.02
2023-03-21T04:34:30.503Z,12.09
2023-03-21T04:35:11.240Z,12.06
2023-03-21T04:35:52.540Z,12.19
2023-03-21T04:36:39.018Z,12.23
2023-03-21T04:37:21.510Z,12.29
2023-03-21T04:38:02.572Z,12.39
2023-03-21T04:38:43.474Z,12.42
2023-03-21T04:39:24.669Z,12.31
2023-03-21T04:40:04.447Z,12.41
2023-03-21T04:40:44.585Z,12.30
2023-03-21T04:41:25.476Z,12.20
2023-03-21T04:42:05.655Z,12.21
2023-03-21T04:42:46.505Z,12.19
2023-03-21T04:43:28.396Z,12.11
2023-03-21T04:44:09.488Z,12.19
2023-03-21T04:44:49.632Z,12.20
2023-03-21T04:45:30.489Z,12.35
2023-03-21T04:46:10.666Z,12.36
2023-03-21T04:46:51.457Z,12.15
2023-03-21T04:47:31.554Z,12.23
2023-03-21T04:48:12.532Z,12.14
2023-03-21T04:48:52.603Z,12.15
2023-03-21T04:49:33.471Z,12.27
2023-03-21T04:50:15.824Z,12.23
2023-03-21T04:50:55.485Z,12.16
2023-03-21T04:51:35.770Z,12.33
2023-03-21T04:52:15.459Z,12.19
2023-03-21T04:52:55.729Z,12.11
2023-03-21T04:53:36.501Z,12.09
2023-03-21T04:54:16.568Z,12.27
2023-03-21T04:54:57.462Z,12.20
2023-03-21T04:55:54.843Z,12.22
2023-03-21T04:56:49.494Z,12.12
2023-03-21T04:57:43.462Z,12.27
2023-03-21T04:58:37.444Z,12.21
2023-03-21T04:59:32.469Z,12.19
2023-03-21T05:00:27.465Z,12.25
2023-03-21T05:01:26.525Z,12.23
2023-03-21T05:02:20.463Z,12.15
2023-03-21T05:03:15.484Z,12.21
2023-03-21T05:04:06.642Z,12.41
2023-03-21T05:04:40.596Z,12.21
2023-03-21T05:05:27.474Z,12.18
2023-03-21T05:06:01.578Z,12.30
2023-03-21T05:06:49.483Z,12.18
2023-03-21T05:07:26.370Z,12.19
2023-03-21T05:08:13.437Z,12.17
2023-03-21T05:08:47.596Z,12.17
2023-03-21T05:09:28.471Z,12.16
2023-03-21T05:10:10.583Z,12.26
2023-03-21T05:10:51.527Z,12.25
2023-03-21T05:11:32.624Z,12.22
2023-03-21T05:12:13.456Z,12.23
2023-03-21T05:12:53.525Z,12.17
2023-03-21T05:13:33.443Z,12.05
2023-03-21T05:14:20.619Z,12.12
2023-03-21T05:15:01.474Z,12.19
2023-03-21T05:15:41.629Z,12.08
2023-03-21T05:16:22.521Z,12.06
2023-03-21T05:17:05.434Z,12.11
2023-03-21T05:17:49.410Z,12.20
2023-03-21T05:18:30.504Z,12.16
2023-03-21T05:19:11.419Z,12.14
2023-03-21T05:19:52.833Z,12.14
2023-03-21T05:20:33.497Z,12.19
2023-03-21T05:21:13.580Z,12.23
2023-03-21T05:21:54.432Z,12.39
2023-03-21T05:22:40.724Z,12.17
2023-03-21T05:23:24.447Z,12.13
2023-03-21T05:24:04.572Z,12.24
2023-03-21T05:24:48.452Z,12.29
2023-03-21T05:25:41.478Z,12.06
2023-03-21T05:26:41.570Z,12.18
2023-03-21T05:27:42.477Z,11.96
2023-03-21T05:28:38.447Z,12.20
2023-03-21T05:29:33.456Z,12.18
2023-03-21T05:30:30.454Z,12.14
2023-03-21T05:31:11.530Z,11.98
2023-03-21T05:31:52.539Z,12.07
2023-03-21T05:32:33.444Z,12.04
2023-03-21T05:33:13.536Z,11.88
2023-03-21T05:33:55.453Z,12.11
2023-03-21T05:34:35.654Z,12.12
2023-03-21T05:35:16.421Z,12.06
2023-03-21T05:35:59.590Z,12.27
2023-03-21T05:36:42.458Z,12.15
2023-03-21T05:37:22.508Z,12.10
2023-03-21T05:38:03.417Z,12.16
2023-03-21T05:38:46.492Z,12.30
2023-03-21T05:39:27.470Z,12.31
2023-03-21T05:40:07.657Z,12.28
2023-03-21T05:40:47.488Z,12.28
2023-03-21T05:41:27.523Z,12.41
2023-03-21T05:42:08.446Z,12.29
2023-03-21T05:42:49.557Z,12.44
2023-03-21T05:43:29.412Z,12.38
2023-03-21T05:44:09.506Z,12.24
2023-03-21T05:44:49.399Z,12.21
2023-03-21T05:45:29.513Z,12.30
2023-03-21T05:46:10.507Z,12.43
2023-03-21T05:46:50.523Z,12.45
2023-03-21T05:47:31.470Z,12.59
2023-03-21T05:48:11.609Z,12.58
2023-03-21T05:48:52.609Z,12.62
2023-03-21T05:49:32.638Z,12.40
2023-03-21T05:50:14.401Z,12.52
2023-03-21T05:50:54.498Z,12.37
2023-03-21T05:51:34.406Z,12.40
2023-03-21T05:52:15.489Z,12.40
2023-03-21T05:52:55.441Z,12.41
2023-03-21T05:53:35.516Z,12.38
2023-03-21T05:54:16.430Z,12.46
2023-03-21T05:54:56.548Z,12.51
2023-03-21T05:55:37.603Z,12.43
2023-03-21T05:56:18.512Z,12.54
2023-03-21T05:56:59.396Z,12.34
2023-03-21T05:57:40.928Z,12.46
2023-03-21T05:58:22.445Z,12.54
2023-03-21T05:59:02.509Z,12.36
2023-03-21T05:59:43.438Z,12.41
2023-03-21T06:00:24.625Z,12.45
2023-03-21T06:01:05.457Z,12.53
2023-03-21T06:01:45.553Z,12.46
2023-03-21T06:02:26.435Z,12.48
2023-03-21T06:03:06.873Z,12.52
2023-03-21T06:03:47.446Z,12.42
2023-03-21T06:04:27.571Z,12.49
2023-03-21T06:05:08.415Z,12.59
2023-03-21T06:05:48.518Z,12.52
2023-03-21T06:06:29.439Z,12.24
2023-03-21T06:07:10.603Z,12.23
2023-03-21T06:07:51.389Z,12.20
2023-03-21T06:08:32.196Z,12.35
2023-03-21T06:09:13.533Z,12.31
2023-03-21T06:09:53.488Z,12.31
2023-03-21T06:10:34.388Z,12.39
2023-03-21T06:11:39.487Z,12.29
2023-03-21T06:12:20.382Z,12.31
2023-03-21T06:13:00.557Z,12.30
2023-03-21T06:13:40.397Z,12.35
2023-03-21T06:14:28.441Z,12.18
2023-03-21T06:15:23.414Z,12.40
2023-03-21T06:16:17.428Z,12.30
2023-03-21T06:17:11.369Z,12.34
2023-03-21T06:18:05.493Z,12.45
2023-03-21T06:18:59.454Z,12.33
2023-03-21T06:19:46.424Z,12.23
2023-03-21T06:20:20.564Z,12.20
2023-03-21T06:21:07.393Z,12.04
2023-03-21T06:21:41.470Z,12.13
2023-03-21T06:22:28.415Z,12.15
2023-03-21T06:23:02.549Z,12.26
2023-03-21T06:23:49.376Z,12.27
2023-03-21T06:24:23.504Z,12.04
2023-03-21T06:25:12.563Z,12.04
2023-03-21T06:25:46.495Z,11.93
2023-03-21T06:26:33.405Z,12.16
2023-03-21T06:27:07.527Z,12.16
2023-03-21T06:27:54.396Z,12.25
2023-03-21T06:28:28.548Z,12.15
2023-03-21T06:29:15.433Z,12.01
2023-03-21T06:29:49.484Z,11.99
2023-03-21T06:30:36.405Z,12.12
2023-03-21T06:31:10.482Z,12.20
2023-03-21T06:31:57.400Z,12.16
2023-03-21T06:32:31.540Z,12.20
2023-03-21T06:33:19.372Z,12.26
2023-03-21T06:33:53.603Z,12.21
2023-03-21T06:34:40.372Z,12.30
2023-03-21T06:35:14.495Z,12.15
2023-03-21T06:36:04.382Z,12.37
2023-03-21T06:36:38.461Z,12.38
2023-03-21T06:37:26.348Z,12.27
2023-03-21T06:38:00.448Z,12.34
2023-03-21T06:38:48.366Z,12.28
2023-03-21T06:39:22.483Z,12.19
2023-03-21T06:40:12.366Z,12.33
2023-03-21T06:40:46.931Z,12.36
2023-03-21T06:41:28.377Z,12.25
2023-03-21T06:42:09.471Z,12.38
2023-03-21T06:42:50.389Z,12.37
2023-03-21T06:43:31.264Z,12.47
2023-03-21T06:44:12.344Z,12.43
2023-03-21T06:44:52.425Z,12.33
2023-03-21T06:45:33.393Z,12.36
2023-03-21T06:46:13.565Z,12.37
2023-03-21T06:46:54.501Z,12.44
2023-03-21T06:47:34.465Z,12.42
2023-03-21T06:48:15.340Z,12.14
2023-03-21T06:48:55.603Z,12.17
2023-03-21T06:49:36.358Z,12.11
2023-03-21T06:50:17.447Z,12.30
2023-03-21T06:50:59.341Z,12.30
2023-03-21T06:51:39.443Z,12.27
2023-03-21T06:52:20.384Z,12.32
2023-03-21T06:53:00.593Z,12.47
2023-03-21T06:53:40.392Z,12.45
2023-03-21T06:54:20.428Z,12.56
2023-03-21T06:55:01.340Z,12.51
2023-03-21T06:55:41.440Z,12.56
2023-03-21T06:56:22.342Z,12.48
2023-03-21T06:57:02.421Z,12.49
2023-03-21T06:57:42.358Z,12.47
2023-03-21T06:58:22.497Z,12.24
2023-03-21T06:59:03.366Z,12.15
2023-03-21T06:59:43.491Z,12.21
2023-03-21T07:00:52.372Z,11.98
2023-03-21T07:01:46.324Z,12.31
2023-03-21T07:02:56.415Z,12.14
2023-03-21T07:03:37.887Z,12.23
2023-03-21T07:04:18.317Z,12.23
2023-03-21T07:04:58.549Z,12.12
2023-03-21T07:05:38.537Z,12.19
2023-03-21T07:06:19.459Z,12.21
2023-03-21T07:06:59.356Z,12.16
2023-03-21T07:07:40.579Z,12.14
2023-03-21T07:08:20.408Z,12.12
2023-03-21T07:09:03.095Z,12.20
2023-03-21T07:09:43.351Z,12.21
2023-03-21T07:10:24.502Z,12.13
2023-03-21T07:11:04.336Z,12.25
2023-03-21T07:12:06.452Z,12.10
2023-03-21T07:12:47.319Z,12.01
2023-03-21T07:13:34.411Z,12.14
2023-03-21T07:14:08.125Z,12.17
2023-03-21T07:14:55.356Z,11.99
2023-03-21T07:15:29.135Z,11.97
2023-03-21T07:16:16.344Z,12.08
2023-03-21T07:16:50.450Z,12.06
2023-03-21T07:17:37.337Z,12.21
2023-03-21T07:18:11.153Z,12.11
2023-03-21T07:18:58.357Z,12.18
2023-03-21T07:19:32.126Z,12.30
2023-03-21T07:20:20.326Z,12.37
2023-03-21T07:20:54.202Z,12.21
2023-03-21T07:21:41.321Z,12.27
2023-03-21T07:22:15.115Z,12.19
2023-03-21T07:23:02.343Z,12.32
2023-03-21T07:23:38.159Z,12.28
2023-03-21T07:24:19.338Z,12.31
2023-03-21T07:25:04.411Z,12.37
2023-03-21T07:25:39.660Z,12.29
2023-03-21T07:26:22.315Z,12.23
2023-03-21T07:26:56.610Z,12.35
2023-03-21T07:27:30.429Z,12.31
2023-03-21T07:28:15.318Z,12.23
2023-03-21T07:28:49.480Z,12.34
2023-03-21T07:29:29.333Z,12.38
2023-03-21T07:30:11.460Z,12.38
2023-03-21T07:31:04.333Z,12.46
2023-03-21T07:31:39.880Z,12.33
2023-03-21T07:32:27.373Z,12.17
2023-03-21T07:33:01.470Z,12.30
2023-03-21T07:33:48.331Z,12.27
2023-03-21T07:34:23.411Z,12.42
2023-03-21T07:35:03.313Z,12.38
2023-03-21T07:35:43.474Z,12.22
2023-03-21T07:36:24.331Z,12.44
2023-03-21T07:37:06.997Z,12.29
2023-03-21T07:37:48.320Z,12.27
2023-03-21T07:38:30.638Z,12.40
2023-03-21T07:39:11.306Z,12.47
2023-03-21T07:39:51.902Z,12.52
2023-03-21T07:40:32.334Z,12.38
2023-03-21T07:41:13.388Z,12.42
2023-03-21T07:41:53.338Z,12.53
2023-03-21T07:42:33.390Z,12.49
2023-03-21T07:43:13.291Z,12.62
2023-03-21T07:43:53.411Z,12.55
2023-03-21T07:44:34.306Z,12.72
2023-03-21T07:45:21.210Z,12.69
2023-03-21T07:46:05.384Z,12.63
2023-03-21T07:46:45.685Z,12.48
2023-03-21T07:47:25.297Z,12.43
2023-03-21T07:48:05.398Z,12.46
2023-03-21T07:48:46.318Z,12.40
2023-03-21T07:49:26.611Z,12.25
2023-03-21T07:50:07.318Z,12.42
2023-03-21T07:50:48.406Z,12.45
2023-03-21T07:51:28.328Z,12.43
2023-03-21T07:52:08.483Z,12.45
2023-03-21T07:52:49.299Z,12.49
2023-03-21T07:53:29.395Z,12.62
2023-03-21T07:54:10.285Z,12.58
2023-03-21T07:54:50.500Z,12.54
2023-03-21T07:55:31.310Z,12.63
2023-03-21T07:56:12.455Z,12.63
2023-03-21T07:56:53.346Z,12.40
2023-03-21T07:57:33.407Z,12.36
2023-03-21T07:58:13.277Z,12.45
2023-03-21T07:58:53.412Z,12.52
2023-03-21T07:59:34.272Z,12.58
2023-03-21T08:00:22.808Z,12.68
2023-03-21T08:01:05.290Z,12.38
2023-03-21T08:01:45.380Z,12.49
2023-03-21T08:02:26.498Z,12.59
2023-03-21T08:03:07.480Z,12.58
2023-03-21T08:03:47.321Z,12.69
2023-03-21T08:04:28.011Z,12.68
2023-03-21T08:05:10.295Z,12.87
2023-03-21T08:05:50.701Z,12.67
2023-03-21T08:06:35.263Z,12.62
2023-03-21T08:07:15.368Z,12.64
2023-03-21T08:07:56.294Z,12.60
2023-03-21T08:08:36.396Z,12.63
2023-03-21T08:09:17.270Z,12.53
2023-03-21T08:09:57.409Z,12.56
2023-03-21T08:10:41.267Z,12.49
2023-03-21T08:11:22.115Z,12.54
2023-03-21T08:12:02.327Z,12.59
2023-03-21T08:12:42.379Z,12.36
2023-03-21T08:13:23.297Z,12.51
2023-03-21T08:14:07.369Z,12.41
2023-03-21T08:14:48.252Z,12.38
2023-03-21T08:15:29.355Z,12.22
2023-03-21T08:16:10.305Z,12.36
2023-03-21T08:16:50.477Z,12.29
2023-03-21T08:17:31.272Z,12.28
2023-03-21T08:18:11.488Z,12.30
2023-03-21T08:18:52.374Z,12.37
2023-03-21T08:19:32.387Z,12.26
2023-03-21T08:20:15.282Z,12.21
2023-03-21T08:21:03.374Z,12.25
2023-03-21T08:21:45.278Z,12.20
2023-03-21T08:22:25.494Z,12.13
2023-03-21T08:23:05.275Z,12.06
2023-03-21T08:23:45.372Z,12.13
2023-03-21T08:24:26.279Z,12.32
2023-03-21T08:25:06.379Z,12.29
2023-03-21T08:25:47.259Z,12.29
2023-03-21T08:26:27.634Z,12.21
2023-03-21T08:27:08.234Z,12.25
2023-03-21T08:27:49.390Z,12.38
2023-03-21T08:28:30.266Z,12.28
2023-03-21T08:29:10.909Z,12.30
2023-03-21T08:29:52.310Z,12.22
2023-03-21T08:30:34.413Z,12.30
2023-03-21T08:31:17.277Z,12.35
2023-03-21T08:31:58.128Z,12.41
2023-03-21T08:32:39.247Z,12.34
2023-03-21T08:33:19.350Z,12.38
2023-03-21T08:34:01.247Z,12.37
2023-03-21T08:34:42.673Z,12.30
2023-03-21T08:35:25.260Z,12.23
2023-03-21T08:36:07.449Z,12.13
2023-03-21T08:36:48.270Z,12.27
2023-03-21T08:37:28.482Z,12.34
2023-03-21T08:38:10.269Z,12.27
2023-03-21T08:38:54.196Z,12.29
2023-03-21T08:39:35.271Z,12.34
2023-03-21T08:40:22.364Z,12.49
2023-03-21T08:41:03.273Z,12.42
2023-03-21T08:41:44.504Z,12.45
2023-03-21T08:42:25.261Z,12.52
2023-03-21T08:43:05.445Z,12.61
2023-03-21T08:43:46.241Z,12.65
2023-03-21T08:44:26.918Z,12.56
2023-03-21T08:45:07.234Z,12.45
2023-03-21T08:45:47.337Z,12.48
2023-03-21T08:46:28.301Z,12.55
2023-03-21T08:47:08.357Z,12.71
2023-03-21T08:47:49.286Z,12.75
2023-03-21T08:48:30.383Z,12.65
2023-03-21T08:49:11.251Z,12.67
2023-03-21T08:49:51.354Z,12.74
2023-03-21T08:50:36.236Z,12.76
2023-03-21T08:51:16.350Z,12.65
2023-03-21T08:51:57.263Z,12.68
2023-03-21T08:52:37.537Z,12.65
2023-03-21T08:53:18.271Z,12.55
2023-03-21T08:53:58.322Z,12.61
2023-03-21T08:54:39.265Z,12.58
2023-03-21T08:55:22.415Z,12.63
2023-03-21T08:56:03.264Z,12.47
2023-03-21T08:56:43.357Z,12.69
2023-03-21T08:57:24.287Z,12.61
2023-03-21T08:58:04.390Z,12.67
2023-03-21T08:58:45.217Z,12.58
2023-03-21T08:59:25.380Z,12.72
2023-03-21T09:00:06.206Z,12.58
2023-03-21T09:00:46.531Z,12.47
2023-03-21T09:01:27.281Z,12.42
2023-03-21T09:02:07.396Z,12.56
2023-03-21T09:02:50.287Z,12.70
2023-03-21T09:03:30.389Z,12.44
2023-03-21T09:04:14.288Z,12.44
2023-03-21T09:04:54.952Z,12.55
2023-03-21T09:05:36.620Z,12.37
2023-03-21T09:06:18.672Z,12.62
2023-03-21T09:06:59.223Z,12.55
2023-03-21T09:07:39.347Z,12.54
2023-03-21T09:08:20.273Z,12.51
2023-03-21T09:09:00.561Z,12.56
2023-03-21T09:09:40.242Z,12.59
2023-03-21T09:10:25.386Z,12.32
2023-03-21T09:11:06.216Z,12.29
2023-03-21T09:11:46.413Z,12.36
2023-03-21T09:12:27.204Z,12.41
2023-03-21T09:13:07.416Z,12.28
2023-03-21T09:13:48.235Z,12.45
2023-03-21T09:14:28.925Z,12.45
2023-03-21T09:15:11.221Z,12.45
2023-03-21T09:15:51.345Z,12.51
2023-03-21T09:16:32.263Z,12.35
2023-03-21T09:17:12.312Z,12.38
2023-03-21T09:17:59.211Z,12.28
2023-03-21T09:18:47.014Z,12.41
2023-03-21T09:19:28.273Z,12.42
2023-03-21T09:20:11.289Z,12.44
2023-03-21T09:20:54.229Z,12.51
2023-03-21T09:21:34.926Z,12.60
2023-03-21T09:22:20.238Z,12.43
2023-03-21T09:23:01.733Z,12.35
2023-03-21T09:23:44.197Z,12.44
2023-03-21T09:24:24.366Z,12.35
2023-03-21T09:25:06.228Z,12.36
2023-03-21T09:25:48.471Z,12.28
2023-03-21T09:26:30.208Z,12.41
2023-03-21T09:27:10.320Z,12.31
2023-03-21T09:27:52.205Z,12.36
2023-03-21T09:28:32.368Z,12.49
2023-03-21T09:29:12.213Z,12.37
2023-03-21T09:29:52.641Z,12.37
2023-03-21T09:30:33.247Z,12.22
2023-03-21T09:31:16.480Z,12.33
2023-03-21T09:32:00.198Z,12.39
2023-03-21T09:32:41.982Z,12.59
2023-03-21T09:33:26.207Z,12.46
2023-03-21T09:34:06.396Z,12.29
2023-03-21T09:34:47.225Z,12.32
2023-03-21T09:35:28.351Z,12.36
2023-03-21T09:36:10.260Z,12.10
2023-03-21T09:36:57.013Z,12.28
2023-03-21T09:37:39.194Z,12.25
2023-03-21T09:38:19.293Z,12.29
2023-03-21T09:39:01.192Z,12.33
2023-03-21T09:39:42.838Z,12.43
2023-03-21T09:40:27.176Z,12.48
2023-03-21T09:41:19.226Z,12.31
2023-03-21T09:42:35.183Z,12.51
2023-03-21T09:43:41.188Z,12.58
2023-03-21T09:45:13.224Z,12.48
2023-03-21T09:46:19.251Z,12.39
2023-03-21T09:47:41.240Z,12.41
2023-03-21T09:48:57.793Z,12.70
2023-03-21T09:50:07.579Z,12.37
2023-03-21T09:51:07.232Z,12.55
2023-03-21T09:51:52.174Z,12.32
2023-03-21T09:52:47.842Z,12.45
2023-03-21T09:53:42.208Z,12.53
2023-03-21T09:54:33.373Z,12.66
2023-03-21T09:55:33.177Z,12.47
2023-03-21T09:56:17.535Z,12.54
2023-03-21T09:57:04.187Z,12.33
2023-03-21T09:58:01.185Z,12.41
2023-03-21T09:59:01.163Z,12.34
2023-03-21T09:59:55.164Z,12.49